Buckley Air Force Base
KBKF : now visible

Airfield :











YOU CAN JOIN US ON...

 
LOGIN :

Register | Disclaimer

   EN    FR    IT 

 









Legend :    VFR   Marginal VFR   IFR   Intensive IFR   Very Intensive IFR
Visi :
Ceiling :
>= 8 km
>= 3000ft
5 to 8 km
1000 to 3000 ft
1500m to 5 km
500 to 1000 ft
800 to 1500m
200 to 500 ft
< 800m
< 200 ft
Symbols :   Thunderstorms  Fog  Heavy snow  Heavy precipitations  Wind > 20 kt






- Airport Elevation : 5662 ft


KBKF - Buckley Air Force Base

CURRENT METAR :
  • 011758Z 19007KT 10SM FEW090 SCT140 BKN200 18/M06 A2972 RMK AO2A SLP018 T01761063 10176 20055 58009

EXPIRED METARs :
  • 011658Z 22011KT 10SM FEW090 SCT140 BKN200 16/M05 A2974 RMK AO2A SLP025 T01621050
  • 011558Z 21011KT 10SM SCT130 BKN220 14/M05 A2975 RMK AO2A SLP032 T01411046

TAF TAF KBKF
Valid from the 01 at 17:00 until the 02 at 23:00 UTC


011708Z 0117/0223 22011KT 9999 SCT140 BKN200 QNH2974INS
BECMG 0119/0120 22012G18KT 9999 FEW220 520043 QNH2960INS
BECMG 0200/0201 VRB06KT 9999 FEW120 QNH2962INS
BECMG 0210/0211 VRB06KT 8000 BR BKN005 QNH2965INS
BECMG 0211/0212 35010KT 8000 -RA OVC005 QNH2972INS
BECMG 0222/0223 03012KT 8000 -SN OVC015 620154 QNH2990INS TX17/0200Z TN00/0217Z



MET'MAP, your aeronautical weather chart ! - Copyright ORBIFLY December 2007 - Disclaimer

ORBIFLY MET'MAP TEAM :

Programming & Development : Alexandra Zaïnal
Concept & original design : Baudouin d'Aumeries
Assistance for programming : Marc-Olivier Méhu
Technical & hardware support : Manuel Goepfert

Contact : metmap@orbifly.com




SOURCES & CREDITS :

   NOAA       Earth
Advisory